createdAt,value
2019-02-25T00:00:55.349Z,10.80
2019-02-25T00:01:55.373Z,15.10
2019-02-25T00:02:55.322Z,9.60
2019-02-25T00:03:55.319Z,11.60
2019-02-25T00:04:55.301Z,9.90
2019-02-25T00:05:55.331Z,9.20
2019-02-25T00:06:55.280Z,12.80
2019-02-25T00:07:55.270Z,11.00
2019-02-25T00:08:55.258Z,13.30
2019-02-25T00:09:55.290Z,11.40
2019-02-25T00:10:55.240Z,11.20
2019-02-25T00:11:55.227Z,13.10
2019-02-25T00:12:55.214Z,10.10
2019-02-25T00:13:55.261Z,11.00
2019-02-25T00:14:55.191Z,10.20
2019-02-25T00:15:55.194Z,11.00
2019-02-25T00:16:55.171Z,9.90
2019-02-25T00:17:55.160Z,9.50
2019-02-25T00:18:55.148Z,9.50
2019-02-25T00:19:55.180Z,9.90
2019-02-25T00:20:55.126Z,9.60
2019-02-25T00:21:55.167Z,9.10
2019-02-25T00:22:55.103Z,10.30
2019-02-25T00:23:55.092Z,10.80
2019-02-25T00:24:55.081Z,10.90
2019-02-25T00:25:55.144Z,9.40
2019-02-25T00:26:55.062Z,11.70
2019-02-25T00:27:55.092Z,11.30
2019-02-25T00:28:55.038Z,9.90
2019-02-25T00:29:55.039Z,14.00
2019-02-25T00:30:55.015Z,11.00
2019-02-25T00:31:55.009Z,11.10
2019-02-25T00:32:55.067Z,9.80
2019-02-25T00:33:54.985Z,9.80
2019-02-25T00:34:54.971Z,11.70
2019-02-25T00:35:54.976Z,10.30
2019-02-25T00:36:54.951Z,11.90
2019-02-25T00:37:54.983Z,11.50
2019-02-25T00:38:54.933Z,11.70
2019-02-25T00:39:54.917Z,12.80
2019-02-25T00:40:54.906Z,11.60
2019-02-25T00:41:54.939Z,9.80
2019-02-25T00:42:54.883Z,12.90
2019-02-25T00:43:54.873Z,10.60
2019-02-25T00:44:54.909Z,10.80
2019-02-25T00:45:54.851Z,12.50
2019-02-25T00:46:54.841Z,11.00
2019-02-25T00:47:54.829Z,11.40
2019-02-25T00:48:54.820Z,10.60
2019-02-25T00:49:54.843Z,11.20
2019-02-25T00:50:54.848Z,11.20
2019-02-25T00:51:54.790Z,10.20
2019-02-25T00:52:54.777Z,10.60
2019-02-25T00:53:54.767Z,9.40
2019-02-25T00:54:54.754Z,10.90
2019-02-25T00:55:54.789Z,10.10
2019-02-25T00:56:54.732Z,12.50
2019-02-25T00:57:54.723Z,12.40
2019-02-25T00:58:54.764Z,11.80
2019-02-25T00:59:54.699Z,9.80
2019-02-25T01:00:54.740Z,11.30
2019-02-25T01:01:54.720Z,11.40
2019-02-25T01:02:54.667Z,11.60
2019-02-25T01:03:54.655Z,10.70
2019-02-25T01:04:54.644Z,15.40
2019-02-25T01:05:54.637Z,10.20
2019-02-25T01:06:54.671Z,11.60
2019-02-25T01:07:54.614Z,10.30
2019-02-25T01:08:54.599Z,12.30
2019-02-25T01:09:54.592Z,11.40
2019-02-25T01:10:54.589Z,10.20
2019-02-25T01:11:54.568Z,9.60
2019-02-25T01:12:54.606Z,12.10
2019-02-25T01:13:54.545Z,11.30
2019-02-25T01:14:54.644Z,9.70
2019-02-25T01:15:54.531Z,10.60
2019-02-25T01:16:54.513Z,12.10
2019-02-25T01:17:54.502Z,10.40
2019-02-25T01:18:54.494Z,12.40
2019-02-25T01:19:54.481Z,12.00
2019-02-25T01:20:54.514Z,10.50
2019-02-25T01:21:54.459Z,10.80
2019-02-25T01:22:54.509Z,12.70
2019-02-25T01:23:54.437Z,10.70
2019-02-25T01:24:54.429Z,9.70
2019-02-25T01:25:54.416Z,11.90
2019-02-25T01:26:54.451Z,10.50
2019-02-25T01:27:54.393Z,13.30
2019-02-25T01:28:54.383Z,12.90
2019-02-25T01:29:54.420Z,11.30
2019-02-25T01:30:54.363Z,9.90
2019-02-25T01:31:54.349Z,10.50
2019-02-25T01:32:54.338Z,10.50
2019-02-25T01:33:54.329Z,9.70
2019-02-25T01:34:54.322Z,11.50
2019-02-25T01:35:54.362Z,12.10
2019-02-25T01:36:54.339Z,13.90
2019-02-25T01:37:54.284Z,11.30
2019-02-25T01:38:54.273Z,11.60
2019-02-25T01:39:54.275Z,12.50
2019-02-25T01:40:54.250Z,10.20
2019-02-25T01:41:54.245Z,10.20
2019-02-25T01:42:54.271Z,12.90
2019-02-25T01:43:54.216Z,11.40
2019-02-25T01:44:54.206Z,12.10
2019-02-25T01:45:54.196Z,11.50
2019-02-25T01:46:54.183Z,14.10
2019-02-25T01:47:54.215Z,11.80
2019-02-25T01:48:54.166Z,11.20
2019-02-25T01:49:54.150Z,9.70
2019-02-25T01:50:54.147Z,10.60
2019-02-25T01:51:54.131Z,10.90
2019-02-25T01:52:54.119Z,10.70
2019-02-25T01:53:54.151Z,11.50
2019-02-25T01:54:54.100Z,10.60
2019-02-25T01:55:54.086Z,10.40
2019-02-25T01:56:54.080Z,11.10
2019-02-25T01:57:54.063Z,10.40
2019-02-25T01:58:54.097Z,9.50
2019-02-25T01:59:54.041Z,9.20
2019-02-25T02:00:54.033Z,9.90
2019-02-25T02:01:54.028Z,11.10
2019-02-25T02:02:54.046Z,10.30
2019-02-25T02:03:53.997Z,9.50
2019-02-25T02:04:53.990Z,12.00
2019-02-25T02:05:53.990Z,11.60
2019-02-25T02:06:53.976Z,11.30
2019-02-25T02:07:53.955Z,11.30
2019-02-25T02:08:53.987Z,10.20
2019-02-25T02:09:53.929Z,10.30
2019-02-25T02:10:53.921Z,10.30
2019-02-25T02:11:53.909Z,9.50
2019-02-25T02:12:53.899Z,9.70
2019-02-25T02:13:53.929Z,10.50
2019-02-25T02:14:53.925Z,9.60
2019-02-25T02:15:53.867Z,13.70
2019-02-25T02:16:53.853Z,10.80
2019-02-25T02:17:53.842Z,10.60
2019-02-25T02:18:53.834Z,9.40
2019-02-25T02:19:53.821Z,10.40
2019-02-25T02:20:53.866Z,11.50
2019-02-25T02:21:53.809Z,10.70
2019-02-25T02:22:53.788Z,11.00
2019-02-25T02:23:53.780Z,11.40
2019-02-25T02:24:53.769Z,11.80
2019-02-25T02:25:53.756Z,10.20
2019-02-25T02:26:53.800Z,13.60
2019-02-25T02:27:53.733Z,10.50
2019-02-25T02:28:53.723Z,9.60
2019-02-25T02:29:53.715Z,9.50
2019-02-25T02:30:53.701Z,10.70
2019-02-25T02:31:53.689Z,9.50
2019-02-25T02:32:53.725Z,9.60
2019-02-25T02:33:53.670Z,10.20
2019-02-25T02:34:53.659Z,10.60
2019-02-25T02:35:53.645Z,11.30
2019-02-25T02:36:53.635Z,9.30
2019-02-25T02:37:53.628Z,10.60
2019-02-25T02:38:53.656Z,11.10
2019-02-25T02:39:53.605Z,15.40
2019-02-25T02:40:53.601Z,10.60
2019-02-25T02:41:53.584Z,11.00
2019-02-25T02:42:53.571Z,10.60
2019-02-25T02:43:53.665Z,11.70
2019-02-25T02:44:53.553Z,10.20
2019-02-25T02:45:53.540Z,11.30
2019-02-25T02:46:53.532Z,10.70
2019-02-25T02:47:53.531Z,12.50
2019-02-25T02:48:53.505Z,11.50
2019-02-25T02:49:53.533Z,9.00
2019-02-25T02:50:53.523Z,9.40
2019-02-25T02:51:53.497Z,11.30
2019-02-25T02:52:53.495Z,11.00
2019-02-25T02:53:53.453Z,9.70
2019-02-25T02:54:53.484Z,11.70
2019-02-25T02:55:53.431Z,9.60
2019-02-25T02:56:53.439Z,9.00
2019-02-25T02:57:53.414Z,11.10
2019-02-25T02:58:53.434Z,9.70
2019-02-25T02:59:53.388Z,8.90
2019-02-25T03:00:53.413Z,10.00
2019-02-25T03:01:53.361Z,10.90
2019-02-25T03:02:53.395Z,11.00
2019-02-25T03:03:53.342Z,11.40
2019-02-25T03:04:53.333Z,9.60
2019-02-25T03:05:53.325Z,10.20
2019-02-25T03:06:53.355Z,10.10
2019-02-25T03:07:53.309Z,11.00
2019-02-25T03:08:53.285Z,11.90
2019-02-25T03:09:53.273Z,13.60
2019-02-25T03:10:53.262Z,10.80
2019-02-25T03:11:53.250Z,9.70
2019-02-25T03:12:53.287Z,12.30
2019-02-25T03:13:53.228Z,9.80
2019-02-25T03:14:53.239Z,11.50
2019-02-25T03:15:53.206Z,11.00
2019-02-25T03:16:53.203Z,9.40
2019-02-25T03:17:53.191Z,13.20
2019-02-25T03:18:53.214Z,13.20
2019-02-25T03:19:53.161Z,12.20
2019-02-25T03:20:53.151Z,11.70
2019-02-25T03:21:53.141Z,11.30
2019-02-25T03:22:53.171Z,12.60
2019-02-25T03:23:53.119Z,10.70
2019-02-25T03:24:53.111Z,10.40
2019-02-25T03:25:53.095Z,14.30
2019-02-25T03:26:53.091Z,13.90
2019-02-25T03:27:53.100Z,11.00
2019-02-25T03:28:53.106Z,9.90
2019-02-25T03:29:53.054Z,12.20
2019-02-25T03:30:53.059Z,10.10
2019-02-25T03:31:53.049Z,11.40
2019-02-25T03:32:53.021Z,11.40
2019-02-25T03:33:53.050Z,9.60
2019-02-25T03:34:53.000Z,10.80
2019-02-25T03:35:53.011Z,11.20
2019-02-25T03:36:52.975Z,8.80
2019-02-25T03:37:52.966Z,11.60
2019-02-25T03:38:53.033Z,10.10
2019-02-25T03:39:52.943Z,10.80
2019-02-25T03:40:52.937Z,11.40
2019-02-25T03:41:52.927Z,11.30
2019-02-25T03:42:52.911Z,10.00
2019-02-25T03:43:52.900Z,12.70
2019-02-25T03:44:52.927Z,8.50
2019-02-25T03:45:52.879Z,10.70
2019-02-25T03:46:52.877Z,8.90
2019-02-25T03:47:52.856Z,9.30
2019-02-25T03:48:52.887Z,9.80
2019-02-25T03:49:52.832Z,9.10
2019-02-25T03:50:52.824Z,9.30
2019-02-25T03:51:52.863Z,11.70
2019-02-25T03:52:52.804Z,10.20
2019-02-25T03:53:52.788Z,9.30
2019-02-25T03:54:52.780Z,9.10
2019-02-25T03:55:52.765Z,8.60
2019-02-25T03:56:52.797Z,9.40
2019-02-25T03:57:52.745Z,9.90
2019-02-25T03:58:52.774Z,8.80
2019-02-25T03:59:52.729Z,10.40
2019-02-25T04:00:52.764Z,11.60
2019-02-25T04:01:52.699Z,9.10
2019-02-25T04:02:52.690Z,10.50
2019-02-25T04:03:52.709Z,9.60
2019-02-25T04:04:52.670Z,9.80
2019-02-25T04:05:52.654Z,10.50
2019-02-25T04:06:52.703Z,10.90
2019-02-25T04:07:52.641Z,9.50
2019-02-25T04:08:52.623Z,10.50
2019-02-25T04:09:52.612Z,9.40
2019-02-25T04:10:52.601Z,9.30
2019-02-25T04:11:52.590Z,10.10
2019-02-25T04:12:52.637Z,9.10
2019-02-25T04:13:52.573Z,9.60
2019-02-25T04:14:52.560Z,11.00
2019-02-25T04:15:52.553Z,11.40
2019-02-25T04:16:52.535Z,10.60
2019-02-25T04:17:52.526Z,8.60
2019-02-25T04:18:52.553Z,9.60
2019-02-25T04:19:52.544Z,8.70
2019-02-25T04:20:52.493Z,9.20
2019-02-25T04:21:52.479Z,9.40
2019-02-25T04:22:52.472Z,10.00
2019-02-25T04:23:52.497Z,10.80
2019-02-25T04:24:52.446Z,9.60
2019-02-25T04:25:52.438Z,10.50
2019-02-25T04:26:52.428Z,11.00
2019-02-25T04:27:52.454Z,10.60
2019-02-25T04:28:52.402Z,8.80
2019-02-25T04:29:52.404Z,9.20
2019-02-25T04:30:52.378Z,10.70
2019-02-25T04:31:52.369Z,10.40
2019-02-25T04:32:52.365Z,10.20
2019-02-25T04:33:52.387Z,10.00
2019-02-25T04:34:52.337Z,9.80
2019-02-25T04:35:52.370Z,10.60
2019-02-25T04:36:52.313Z,9.40
2019-02-25T04:37:52.342Z,9.90
2019-02-25T04:38:52.293Z,8.40
2019-02-25T04:39:52.329Z,9.00
2019-02-25T04:40:52.310Z,9.50
2019-02-25T04:41:52.258Z,9.80
2019-02-25T04:42:52.246Z,10.70
2019-02-25T04:43:52.247Z,14.00
2019-02-25T04:44:52.226Z,9.70
2019-02-25T04:45:52.216Z,9.50
2019-02-25T04:46:52.252Z,10.80
2019-02-25T04:47:52.193Z,9.70
2019-02-25T04:48:52.186Z,9.80
2019-02-25T04:49:52.176Z,9.50
2019-02-25T04:50:52.157Z,10.10
2019-02-25T04:51:52.151Z,13.20
2019-02-25T04:52:52.181Z,9.80
2019-02-25T04:53:52.164Z,11.10
2019-02-25T04:54:52.121Z,10.10
2019-02-25T04:55:52.110Z,11.30
2019-02-25T04:56:52.094Z,11.30
2019-02-25T04:57:52.083Z,10.40
2019-02-25T04:58:52.114Z,9.80
2019-02-25T04:59:52.058Z,10.70
2019-02-25T05:00:52.093Z,12.50
2019-02-25T05:01:52.039Z,8.50
2019-02-25T05:02:52.028Z,9.70
2019-02-25T05:03:52.014Z,11.60
2019-02-25T05:04:52.008Z,10.30
2019-02-25T05:05:51.991Z,8.80
2019-02-25T05:06:52.521Z,9.90
2019-02-25T05:07:51.971Z,10.40
2019-02-25T05:08:51.959Z,10.90
2019-02-25T05:09:51.987Z,9.60
2019-02-25T05:10:51.944Z,8.90
2019-02-25T05:11:51.928Z,9.10
2019-02-25T05:12:51.922Z,9.50
2019-02-25T05:13:51.906Z,11.30
2019-02-25T05:14:51.893Z,11.30
2019-02-25T05:15:51.927Z,9.50
2019-02-25T05:16:51.871Z,10.40
2019-02-25T05:17:51.867Z,9.20
2019-02-25T05:18:51.849Z,10.70
2019-02-25T05:19:51.839Z,9.50
2019-02-25T05:20:51.824Z,8.80
2019-02-25T05:21:51.868Z,8.40
2019-02-25T05:22:51.850Z,9.60
2019-02-25T05:23:51.801Z,11.40
2019-02-25T05:24:51.822Z,8.70
2019-02-25T05:25:51.775Z,11.10
2019-02-25T05:26:51.760Z,9.80
2019-02-25T05:27:51.747Z,10.80
2019-02-25T05:28:51.738Z,9.40
2019-02-25T05:29:51.728Z,10.90
2019-02-25T05:30:51.763Z,10.90
2019-02-25T05:31:51.704Z,10.30
2019-02-25T05:32:51.733Z,12.90
2019-02-25T05:33:51.682Z,9.20
2019-02-25T05:34:51.713Z,11.90
2019-02-25T05:35:51.660Z,8.60
2019-02-25T05:36:51.650Z,10.30
2019-02-25T05:37:51.636Z,10.90
2019-02-25T05:38:51.627Z,10.00
2019-02-25T05:39:51.619Z,8.50
2019-02-25T05:40:51.644Z,9.70
2019-02-25T05:41:51.596Z,10.20
2019-02-25T05:42:51.585Z,12.20
2019-02-25T05:43:51.573Z,9.80
2019-02-25T05:44:51.582Z,10.30
2019-02-25T05:45:51.548Z,10.40
2019-02-25T05:46:51.584Z,10.20
2019-02-25T05:47:51.527Z,9.10
2019-02-25T05:48:51.526Z,10.40
2019-02-25T05:49:51.505Z,12.30
2019-02-25T05:50:51.499Z,11.90
2019-02-25T05:51:51.527Z,10.50
2019-02-25T05:52:51.473Z,13.10
2019-02-25T05:53:51.541Z,10.20
2019-02-25T05:54:51.449Z,9.80
2019-02-25T05:55:51.438Z,11.60
2019-02-25T05:56:51.483Z,10.60
2019-02-25T05:57:51.423Z,10.60
2019-02-25T05:58:51.404Z,9.90
2019-02-25T05:59:51.455Z,10.70
2019-02-25T06:00:51.382Z,12.90
2019-02-25T06:01:51.379Z,11.30
2019-02-25T06:02:51.366Z,10.30
2019-02-25T06:03:51.359Z,12.30
2019-02-25T06:04:51.355Z,13.10
2019-02-25T06:05:51.376Z,15.90
2019-02-25T06:06:51.317Z,13.50
2019-02-25T06:07:51.308Z,14.20
2019-02-25T06:08:51.338Z,11.10
2019-02-25T06:09:51.298Z,13.20
2019-02-25T06:10:51.274Z,11.50
2019-02-25T06:11:51.260Z,11.50
2019-02-25T06:12:51.257Z,10.20
2019-02-25T06:13:51.314Z,12.30
2019-02-25T06:14:51.231Z,12.80
2019-02-25T06:15:51.486Z,9.00
2019-02-25T06:16:51.216Z,10.50
2019-02-25T06:17:51.240Z,9.90
2019-02-25T06:18:51.219Z,9.70
2019-02-25T06:19:51.177Z,9.60
2019-02-25T06:20:51.231Z,9.60
2019-02-25T06:21:51.162Z,10.80
2019-02-25T06:22:51.155Z,11.20
2019-02-25T06:23:51.176Z,14.00
2019-02-25T06:24:51.116Z,12.60
2019-02-25T06:25:51.104Z,12.50
2019-02-25T06:26:51.109Z,11.90
2019-02-25T06:27:51.087Z,12.40
2019-02-25T06:28:51.082Z,14.70
2019-02-25T06:29:51.107Z,12.80
2019-02-25T06:30:51.067Z,13.00
2019-02-25T06:31:51.043Z,14.50
2019-02-25T06:32:51.033Z,12.20
2019-02-25T06:33:51.027Z,12.30
2019-02-25T06:34:51.095Z,11.10
2019-02-25T06:35:51.007Z,11.60
2019-02-25T06:36:51.058Z,11.80
2019-02-25T06:37:50.976Z,12.00
2019-02-25T06:38:51.018Z,10.90
2019-02-25T06:39:50.980Z,10.90
2019-02-25T06:40:50.958Z,11.60
2019-02-25T06:41:50.935Z,12.40
2019-02-25T06:42:50.946Z,13.50
2019-02-25T06:43:50.980Z,12.70
2019-02-25T06:44:50.943Z,15.90
2019-02-25T06:45:50.974Z,12.10
2019-02-25T06:46:50.935Z,12.70
2019-02-25T06:47:50.871Z,12.50
2019-02-25T06:48:50.931Z,17.80
2019-02-25T06:49:50.881Z,15.90
2019-02-25T06:50:50.837Z,12.60
2019-02-25T06:51:50.821Z,13.70
2019-02-25T06:52:50.861Z,14.10
2019-02-25T06:53:50.858Z,11.10
2019-02-25T06:54:50.831Z,13.90
2019-02-25T06:55:50.776Z,13.70
2019-02-25T06:56:50.773Z,16.20
2019-02-25T06:57:50.758Z,16.40
2019-02-25T06:58:50.753Z,14.50
2019-02-25T06:59:50.789Z,14.20
2019-02-25T07:00:50.775Z,13.30
2019-02-25T07:01:50.786Z,15.80
2019-02-25T07:02:50.696Z,13.40
2019-02-25T07:03:50.822Z,14.30
2019-02-25T07:04:50.684Z,12.50
2019-02-25T07:05:50.697Z,13.50
2019-02-25T07:06:50.657Z,14.00
2019-02-25T07:07:50.642Z,13.70
2019-02-25T07:08:50.674Z,14.30
2019-02-25T07:09:50.629Z,15.10
2019-02-25T07:10:50.618Z,13.70
2019-02-25T07:11:50.601Z,13.90
2019-02-25T07:12:50.631Z,10.20
2019-02-25T07:13:50.581Z,12.30
2019-02-25T07:14:50.620Z,12.20
2019-02-25T07:15:50.570Z,11.10
2019-02-25T07:16:50.548Z,11.60
2019-02-25T07:17:50.555Z,11.50
2019-02-25T07:18:50.545Z,15.30
2019-02-25T07:19:50.516Z,12.80
2019-02-25T07:20:50.582Z,10.80
2019-02-25T07:21:50.487Z,12.70
2019-02-25T07:22:50.482Z,11.80
2019-02-25T07:23:50.475Z,11.20
2019-02-25T07:24:52.799Z,10.30
2019-02-25T07:25:50.467Z,12.70
2019-02-25T07:26:50.506Z,12.80
2019-02-25T07:27:50.430Z,13.60
2019-02-25T07:28:50.453Z,12.60
2019-02-25T07:29:50.415Z,12.50
2019-02-25T07:30:50.392Z,10.50
2019-02-25T07:31:50.375Z,9.70
2019-02-25T07:32:50.387Z,10.80
2019-02-25T07:33:50.358Z,11.60
2019-02-25T07:34:50.415Z,12.10
2019-02-25T07:35:50.347Z,13.40
2019-02-25T07:36:50.363Z,10.60
2019-02-25T07:37:51.705Z,10.90
2019-02-25T07:38:50.325Z,10.80
2019-02-25T07:39:50.464Z,13.40
2019-02-25T07:40:50.283Z,13.00
2019-02-25T07:41:50.320Z,10.20
2019-02-25T07:42:50.322Z,12.00
2019-02-25T07:43:50.299Z,11.70
2019-02-25T07:44:50.920Z,10.90
2019-02-25T07:45:50.271Z,13.10
2019-02-25T07:46:50.279Z,13.70
2019-02-25T07:47:50.206Z,12.10
2019-02-25T07:48:50.355Z,11.20
2019-02-25T07:49:50.198Z,13.30
2019-02-25T07:50:50.189Z,14.50
2019-02-25T07:51:50.221Z,17.10
2019-02-25T07:52:50.151Z,10.80
2019-02-25T07:53:50.202Z,12.00
2019-02-25T07:54:50.386Z,13.40
2019-02-25T07:55:50.179Z,11.40
2019-02-25T07:56:50.119Z,12.30
2019-02-25T07:57:50.131Z,10.70
2019-02-25T07:58:50.550Z,10.10
2019-02-25T07:59:50.077Z,13.30
2019-02-25T08:00:50.977Z,11.00
2019-02-25T08:01:50.094Z,11.30
2019-02-25T08:02:50.051Z,10.70
2019-02-25T08:03:50.109Z,11.70
2019-02-25T08:04:50.379Z,11.10
2019-02-25T08:05:50.038Z,11.40
2019-02-25T08:06:50.357Z,11.10
2019-02-25T08:07:50.086Z,12.00
2019-02-25T08:08:50.003Z,13.80
2019-02-25T08:09:50.543Z,10.10
2019-02-25T08:10:50.378Z,12.00
2019-02-25T08:11:50.125Z,16.20
2019-02-25T08:12:49.954Z,12.30
2019-02-25T08:13:50.181Z,10.50
2019-02-25T08:14:49.927Z,11.30
2019-02-25T08:15:49.940Z,12.10
2019-02-25T08:16:50.546Z,13.00
2019-02-25T08:17:50.031Z,11.40
2019-02-25T08:18:49.860Z,12.80
2019-02-25T08:19:50.344Z,11.40
2019-02-25T08:20:49.861Z,11.40
2019-02-25T08:21:49.878Z,15.40
2019-02-25T08:22:49.840Z,12.30
2019-02-25T08:23:52.187Z,13.40
2019-02-25T08:24:49.829Z,12.90
2019-02-25T08:25:49.792Z,12.30
2019-02-25T08:26:49.856Z,12.50
2019-02-25T08:27:49.858Z,13.60
2019-02-25T08:28:49.893Z,14.80
2019-02-25T08:29:49.747Z,11.30
2019-02-25T08:30:49.737Z,14.10
2019-02-25T08:31:49.814Z,12.00
2019-02-25T08:32:49.711Z,13.10
2019-02-25T08:33:49.917Z,12.30
2019-02-25T08:34:49.850Z,12.00
2019-02-25T08:35:49.883Z,14.10
2019-02-25T08:36:49.676Z,11.50
2019-02-25T08:37:49.798Z,15.70
2019-02-25T08:38:50.523Z,10.80
2019-02-25T08:39:49.684Z,11.20
2019-02-25T08:40:49.794Z,12.10
2019-02-25T08:41:49.655Z,17.40
2019-02-25T08:42:50.787Z,11.90
2019-02-25T08:43:50.373Z,11.10
2019-02-25T08:44:50.279Z,11.10
2019-02-25T08:45:49.633Z,11.90
2019-02-25T08:46:50.982Z,12.50
2019-02-25T08:47:49.638Z,10.10
2019-02-25T08:48:49.761Z,12.20
2019-02-25T08:49:49.558Z,11.10
2019-02-25T08:50:49.750Z,11.50
2019-02-25T08:51:49.655Z,12.10
2019-02-25T08:52:49.586Z,11.90
2019-02-25T08:53:49.518Z,11.40
2019-02-25T08:54:49.471Z,9.70
2019-02-25T08:55:49.457Z,14.10
2019-02-25T08:56:49.620Z,9.80
2019-02-25T08:57:49.595Z,10.40
2019-02-25T08:58:49.549Z,11.70
2019-02-25T08:59:49.468Z,11.50
2019-02-25T09:00:49.556Z,11.00
2019-02-25T09:01:49.455Z,9.40
2019-02-25T09:02:49.450Z,12.60
2019-02-25T09:03:49.646Z,13.70
2019-02-25T09:04:49.450Z,12.00
2019-02-25T09:05:49.366Z,12.90
2019-02-25T09:06:49.547Z,11.60
2019-02-25T09:07:49.455Z,13.90
2019-02-25T09:08:49.460Z,8.90
2019-02-25T09:09:49.439Z,9.70
2019-02-25T09:10:49.464Z,10.30
2019-02-25T09:11:49.371Z,11.60
2019-02-25T09:12:49.634Z,10.80
2019-02-25T09:13:49.582Z,11.00
2019-02-25T09:14:49.627Z,10.90
2019-02-25T09:15:49.249Z,13.00
2019-02-25T09:16:49.238Z,12.50
2019-02-25T09:17:49.268Z,11.10
2019-02-25T09:18:49.300Z,11.40
2019-02-25T09:19:49.209Z,10.60
2019-02-25T09:20:49.246Z,12.80
2019-02-25T09:21:49.170Z,12.20
2019-02-25T09:22:49.170Z,10.90
2019-02-25T09:23:49.152Z,11.10
2019-02-25T09:24:49.196Z,10.90
2019-02-25T09:25:49.158Z,13.50
2019-02-25T09:26:49.114Z,12.80
2019-02-25T09:27:49.106Z,12.10
2019-02-25T09:28:49.091Z,12.50
2019-02-25T09:29:49.163Z,11.10
2019-02-25T09:30:49.079Z,15.50
2019-02-25T09:31:49.169Z,10.10
2019-02-25T09:32:49.118Z,9.40
2019-02-25T09:33:49.052Z,9.40
2019-02-25T09:34:49.048Z,11.50
2019-02-25T09:35:49.019Z,10.10
2019-02-25T09:36:49.044Z,11.00
2019-02-25T09:37:48.990Z,11.60
2019-02-25T09:38:48.978Z,11.00
2019-02-25T09:39:49.050Z,8.70
2019-02-25T09:40:49.145Z,11.80
2019-02-25T09:41:48.996Z,11.10
2019-02-25T09:42:48.955Z,9.80
2019-02-25T09:43:48.971Z,11.40
2019-02-25T09:44:48.911Z,15.60
2019-02-25T09:45:48.944Z,13.60
2019-02-25T09:46:48.933Z,12.50
2019-02-25T09:47:48.975Z,11.60
2019-02-25T09:48:48.867Z,12.00
2019-02-25T09:49:50.973Z,11.70
2019-02-25T09:50:48.853Z,11.70
2019-02-25T09:51:48.938Z,9.60
2019-02-25T09:52:48.852Z,11.50
2019-02-25T09:53:48.867Z,9.60
2019-02-25T09:54:48.811Z,9.50
2019-02-25T09:55:48.896Z,7.40
2019-02-25T09:56:48.839Z,8.50
2019-02-25T09:57:48.775Z,10.80
2019-02-25T09:58:48.814Z,11.40
2019-02-25T09:59:48.746Z,10.20
2019-02-25T10:00:48.787Z,8.60
2019-02-25T10:01:48.738Z,9.80
2019-02-25T10:02:48.738Z,8.80
2019-02-25T10:03:48.745Z,9.70
2019-02-25T10:04:48.741Z,8.50
2019-02-25T10:05:48.930Z,7.90
2019-02-25T10:06:48.935Z,9.00
2019-02-25T10:07:48.829Z,7.50
2019-02-25T10:08:48.693Z,9.30
2019-02-25T10:09:48.670Z,9.40
2019-02-25T10:10:48.997Z,7.70
2019-02-25T10:11:48.813Z,7.60
2019-02-25T10:12:48.625Z,7.20
2019-02-25T10:13:48.620Z,6.70
2019-02-25T10:14:49.577Z,9.70
2019-02-25T10:15:48.585Z,7.00
2019-02-25T10:16:48.766Z,6.10
2019-02-25T10:17:48.603Z,10.60
2019-02-25T10:18:48.587Z,8.90
2019-02-25T10:19:48.535Z,6.90
2019-02-25T10:20:48.505Z,8.30
2019-02-25T10:21:48.515Z,6.90
2019-02-25T10:22:48.533Z,8.00
2019-02-25T10:23:48.495Z,8.30
2019-02-25T10:24:48.525Z,12.00
2019-02-25T10:25:48.464Z,7.20
2019-02-25T10:26:48.505Z,8.00
2019-02-25T10:27:49.699Z,5.90
2019-02-25T10:28:48.485Z,7.60
2019-02-25T10:29:48.521Z,8.60
2019-02-25T10:30:52.825Z,7.60
2019-02-25T10:31:48.404Z,7.70
2019-02-25T10:32:48.482Z,7.80
2019-02-25T10:33:48.435Z,5.30
2019-02-25T10:34:48.430Z,5.40
2019-02-25T10:35:49.743Z,8.40
2019-02-25T10:36:50.295Z,7.50
2019-02-25T10:37:49.196Z,5.70
2019-02-25T10:38:48.362Z,7.50
2019-02-25T10:39:49.613Z,7.10
2019-02-25T10:40:49.602Z,7.90
2019-02-25T10:44:38.255Z,4.50
2019-02-25T10:45:38.918Z,6.80
2019-02-25T10:46:38.577Z,5.70
2019-02-25T10:47:36.911Z,7.70
2019-02-25T10:48:36.895Z,5.50
2019-02-25T10:49:36.903Z,5.60
2019-02-25T10:50:38.616Z,4.70
2019-02-25T10:51:38.800Z,8.30
2019-02-25T10:52:38.694Z,7.00
2019-02-25T10:53:36.884Z,9.30
2019-02-25T10:54:36.828Z,6.40
2019-02-25T10:55:36.830Z,7.30
2019-02-25T10:56:36.820Z,7.70
2019-02-25T10:57:36.808Z,6.70
2019-02-25T10:58:36.790Z,8.00
2019-02-25T10:59:38.979Z,6.10
2019-02-25T11:00:37.797Z,7.80
2019-02-25T11:01:37.573Z,5.40
2019-02-25T11:02:43.973Z,7.30
2019-02-25T11:03:37.747Z,6.70
2019-02-25T11:04:36.775Z,8.00
2019-02-25T11:05:36.721Z,7.50
2019-02-25T11:06:37.687Z,5.30
2019-02-25T11:07:37.310Z,6.00
2019-02-25T11:08:37.380Z,7.10
2019-02-25T11:09:36.673Z,6.10
2019-02-25T11:10:37.497Z,6.60
2019-02-25T11:11:36.660Z,5.70
2019-02-25T11:12:37.501Z,7.70
2019-02-25T11:13:36.820Z,6.20
2019-02-25T11:14:38.978Z,5.10
2019-02-25T11:15:37.438Z,6.30
2019-02-25T11:16:36.609Z,7.10
2019-02-25T11:17:36.644Z,5.10
2019-02-25T11:18:36.567Z,5.70
2019-02-25T11:19:36.561Z,6.70
2019-02-25T11:20:37.781Z,5.10
2019-02-25T11:21:37.598Z,7.80
2019-02-25T11:22:38.066Z,5.50
2019-02-25T11:23:36.512Z,5.40
2019-02-25T11:24:36.519Z,7.20
2019-02-25T11:25:36.485Z,5.20
2019-02-25T11:26:36.622Z,5.90
2019-02-25T11:27:37.793Z,5.10
2019-02-25T11:28:38.556Z,4.60
2019-02-25T11:29:38.390Z,7.20
2019-02-25T11:30:36.454Z,6.20
2019-02-25T11:31:36.433Z,5.60
2019-02-25T11:32:36.421Z,6.70
2019-02-25T11:33:36.412Z,5.40
2019-02-25T11:34:37.669Z,6.90
2019-02-25T11:35:37.069Z,8.90
2019-02-25T11:36:36.376Z,5.30
2019-02-25T11:37:36.350Z,7.20
2019-02-25T11:38:37.472Z,5.70
2019-02-25T11:39:37.254Z,6.80
2019-02-25T11:40:38.290Z,6.30
2019-02-25T11:41:37.147Z,5.80
2019-02-25T11:42:36.297Z,6.50
2019-02-25T11:43:36.393Z,4.80
2019-02-25T11:44:36.290Z,6.80
2019-02-25T11:45:36.491Z,11.30
2019-02-25T11:46:36.254Z,7.40
2019-02-25T11:47:36.236Z,7.10
2019-02-25T11:48:36.226Z,6.10
2019-02-25T11:49:36.275Z,5.90
2019-02-25T11:50:36.214Z,7.50
2019-02-25T11:51:36.205Z,5.90
2019-02-25T11:52:36.298Z,5.40
2019-02-25T11:53:36.179Z,8.70
2019-02-25T11:54:36.162Z,6.80
2019-02-25T11:55:36.177Z,5.20
2019-02-25T11:56:36.181Z,6.40
2019-02-25T11:57:36.125Z,6.80
2019-02-25T11:58:36.170Z,5.50
2019-02-25T11:59:36.193Z,8.10
2019-02-25T12:00:36.228Z,6.90
2019-02-25T12:01:36.153Z,5.80
2019-02-25T12:02:36.082Z,6.20
2019-02-25T12:03:36.065Z,6.80
2019-02-25T12:04:36.058Z,6.80
2019-02-25T12:05:36.035Z,7.60
2019-02-25T12:06:36.068Z,4.20
2019-02-25T12:07:36.066Z,4.60
2019-02-25T12:08:36.138Z,8.20
2019-02-25T12:09:36.017Z,6.10
2019-02-25T12:10:35.993Z,7.30
2019-02-25T12:11:36.027Z,6.10
2019-02-25T12:12:36.085Z,5.90
2019-02-25T12:13:35.953Z,6.40
2019-02-25T12:14:35.942Z,17.00
2019-02-25T12:15:35.929Z,6.90
2019-02-25T12:16:35.924Z,7.80
2019-02-25T12:17:35.910Z,7.20
2019-02-25T12:18:36.115Z,5.70
2019-02-25T12:19:35.911Z,5.30
2019-02-25T12:20:35.917Z,6.70
2019-02-25T12:21:35.865Z,7.20
2019-02-25T12:22:35.899Z,5.50
2019-02-25T12:23:35.852Z,8.80
2019-02-25T12:24:35.884Z,4.60
2019-02-25T12:25:35.826Z,6.30
2019-02-25T12:26:35.804Z,7.20
2019-02-25T12:27:35.794Z,7.60
2019-02-25T12:28:35.835Z,7.10
2019-02-25T12:29:35.981Z,12.30
2019-02-25T12:30:35.766Z,7.00
2019-02-25T12:31:35.757Z,6.30
2019-02-25T12:32:35.742Z,4.90
2019-02-25T12:33:35.737Z,6.50
2019-02-25T12:34:35.729Z,4.60
2019-02-25T12:35:35.752Z,8.70
2019-02-25T12:36:35.700Z,6.30
2019-02-25T12:37:35.705Z,5.30
2019-02-25T12:38:35.689Z,3.90
2019-02-25T12:39:35.685Z,4.70
2019-02-25T12:40:35.773Z,7.50
2019-02-25T12:41:35.663Z,7.20
2019-02-25T12:42:35.626Z,8.30
2019-02-25T12:43:35.631Z,5.30
2019-02-25T12:44:35.660Z,9.90
2019-02-25T12:45:35.602Z,8.40
2019-02-25T12:46:35.643Z,8.60
2019-02-25T12:47:35.595Z,4.50
2019-02-25T12:48:35.566Z,6.30
2019-02-25T12:49:35.552Z,5.30
2019-02-25T12:50:35.600Z,7.50
2019-02-25T12:51:35.542Z,6.20
2019-02-25T12:52:35.527Z,7.20
2019-02-25T12:53:37.709Z,5.70
2019-02-25T12:54:35.500Z,4.70
2019-02-25T12:55:35.482Z,8.80
2019-02-25T12:56:35.499Z,6.70
2019-02-25T12:57:35.460Z,5.20
2019-02-25T12:58:35.454Z,5.80
2019-02-25T12:59:35.505Z,8.00
2019-02-25T13:00:35.443Z,6.30
2019-02-25T13:01:35.434Z,5.70
2019-02-25T13:02:35.417Z,4.70
2019-02-25T13:03:35.455Z,5.30
2019-02-25T13:04:35.445Z,7.50
2019-02-25T13:05:35.381Z,4.40